createdAt,value
2022-09-28T00:01:27.220Z,100.00
2022-09-28T00:03:59.942Z,100.00
2022-09-28T00:06:30.757Z,100.00
2022-09-28T00:08:58.742Z,100.00
2022-09-28T00:11:29.295Z,100.00
2022-09-28T00:14:00.129Z,100.00
2022-09-28T00:16:31.657Z,100.00
2022-09-28T00:18:59.913Z,100.00
2022-09-28T00:21:31.671Z,100.00
2022-09-28T00:24:12.984Z,100.00
2022-09-28T00:26:41.793Z,100.00
2022-09-28T00:29:31.629Z,100.00
2022-09-28T00:32:03.132Z,100.00
2022-09-28T00:34:42.532Z,100.00
2022-09-28T00:37:10.370Z,100.00
2022-09-28T00:39:38.833Z,100.00
2022-09-28T00:42:19.999Z,100.00
2022-09-28T00:44:51.511Z,100.00
2022-09-28T00:47:33.194Z,100.00
2022-09-28T00:50:11.868Z,100.00
2022-09-28T00:52:48.763Z,100.00
2022-09-28T00:55:22.056Z,100.00
2022-09-28T00:57:52.410Z,100.00
2022-09-28T01:00:19.729Z,100.00
2022-09-28T01:02:47.743Z,100.00
2022-09-28T01:05:17.125Z,100.00
2022-09-28T01:07:46.683Z,100.00
2022-09-28T01:10:14.925Z,100.00
2022-09-28T01:12:42.166Z,100.00
2022-09-28T01:15:09.937Z,100.00
2022-09-28T01:17:45.459Z,100.00
2022-09-28T01:20:31.311Z,100.00
2022-09-28T01:23:37.663Z,100.00
2022-09-28T01:26:23.275Z,100.00
2022-09-28T01:28:59.800Z,100.00
2022-09-28T01:31:32.497Z,100.00
2022-09-28T01:34:16.601Z,100.00
2022-09-28T01:36:54.077Z,100.00
2022-09-28T01:39:34.754Z,100.00
2022-09-28T01:42:08.437Z,100.00
2022-09-28T01:44:40.114Z,100.00
2022-09-28T01:47:13.048Z,100.00
2022-09-28T01:49:45.388Z,100.00
2022-09-28T01:52:23.342Z,100.00
2022-09-28T01:54:53.565Z,100.00
2022-09-28T01:57:35.911Z,100.00
2022-09-28T02:00:08.048Z,100.00
2022-09-28T02:02:58.472Z,100.00
2022-09-28T02:05:52.052Z,100.00
2022-09-28T02:08:33.909Z,100.00
2022-09-28T02:11:08.250Z,100.00
2022-09-28T02:14:04.461Z,100.00
2022-09-28T02:16:43.070Z,100.00
2022-09-28T02:19:13.906Z,100.00
2022-09-28T02:22:06.685Z,100.00
2022-09-28T02:24:42.489Z,100.00
2022-09-28T02:27:23.493Z,100.00
2022-09-28T02:29:50.785Z,100.00
2022-09-28T02:32:20.443Z,100.00
2022-09-28T02:34:47.596Z,100.00
2022-09-28T02:37:14.784Z,100.00
2022-09-28T02:39:41.965Z,100.00
2022-09-28T02:42:25.821Z,100.00
2022-09-28T02:45:16.045Z,100.00
2022-09-28T02:47:52.088Z,100.00
2022-09-28T02:50:33.465Z,100.00
2022-09-28T02:53:28.061Z,100.00
2022-09-28T02:56:04.169Z,100.00
2022-09-28T02:58:49.465Z,100.00
2022-09-28T03:01:26.316Z,100.00
2022-09-28T03:04:02.042Z,100.00
2022-09-28T03:06:41.329Z,100.00
2022-09-28T03:09:22.188Z,100.00
2022-09-28T03:11:57.178Z,100.00
2022-09-28T03:14:24.663Z,100.00
2022-09-28T03:16:56.185Z,100.00
2022-09-28T03:19:28.499Z,100.00
2022-09-28T03:21:55.867Z,100.00
2022-09-28T03:24:23.106Z,100.00
2022-09-28T03:26:50.758Z,100.00
2022-09-28T03:29:20.501Z,100.00
2022-09-28T03:31:52.617Z,100.00
2022-09-28T03:34:20.172Z,100.00
2022-09-28T03:36:47.444Z,100.00
2022-09-28T03:39:14.936Z,100.00
2022-09-28T03:41:42.615Z,100.00
2022-09-28T03:44:09.745Z,100.00
2022-09-28T03:46:37.020Z,100.00
2022-09-28T03:49:07.451Z,100.00
2022-09-28T03:51:34.506Z,100.00
2022-09-28T03:54:01.662Z,100.00
2022-09-28T03:56:28.737Z,100.00
2022-09-28T03:58:55.807Z,100.00
2022-09-28T04:01:23.140Z,100.00
2022-09-28T04:03:57.608Z,100.00
2022-09-28T04:06:26.001Z,100.00
2022-09-28T04:08:53.881Z,100.00
2022-09-28T04:11:21.526Z,100.00
2022-09-28T04:13:51.816Z,100.00
2022-09-28T04:16:19.634Z,100.00
2022-09-28T04:18:59.168Z,100.00
2022-09-28T04:21:45.050Z,100.00
2022-09-28T04:24:14.636Z,100.00
2022-09-28T04:26:41.869Z,100.00
2022-09-28T04:29:17.520Z,100.00
2022-09-28T04:31:51.051Z,100.00
2022-09-28T04:34:21.966Z,100.00
2022-09-28T04:36:50.072Z,100.00
2022-09-28T04:39:19.490Z,100.00
2022-09-28T04:41:52.538Z,100.00
2022-09-28T04:44:19.841Z,100.00
2022-09-28T04:46:48.329Z,100.00
2022-09-28T04:49:30.455Z,100.00
2022-09-28T04:52:10.973Z,100.00
2022-09-28T04:54:39.784Z,100.00
2022-09-28T04:57:06.883Z,100.00
2022-09-28T04:59:34.614Z,100.00
2022-09-28T05:02:01.796Z,100.00
2022-09-28T05:04:47.919Z,100.00
2022-09-28T05:07:36.969Z,99.93
2022-09-28T05:10:06.623Z,97.83
2022-09-28T05:12:34.432Z,97.11
2022-09-28T05:15:01.719Z,100.00
2022-09-28T05:17:29.001Z,100.00
2022-09-28T05:20:06.767Z,100.00
2022-09-28T05:22:34.491Z,100.00
2022-09-28T05:25:03.063Z,99.92
2022-09-28T05:27:36.513Z,98.68
2022-09-28T05:30:08.873Z,98.18
2022-09-28T05:33:02.399Z,98.62
2022-09-28T05:35:42.512Z,98.51
2022-09-28T05:38:09.661Z,99.90
2022-09-28T05:40:36.976Z,97.51
2022-09-28T05:43:04.125Z,94.98
2022-09-28T05:45:32.570Z,91.83
2022-09-28T05:47:59.951Z,93.37
2022-09-28T05:50:28.086Z,94.76
2022-09-28T05:53:07.021Z,94.04
2022-09-28T05:55:35.325Z,94.35
2022-09-28T05:58:05.379Z,93.39
2022-09-28T06:00:35.750Z,94.08
2022-09-28T06:03:08.937Z,92.72
2022-09-28T06:05:39.534Z,93.69
2022-09-28T06:08:10.467Z,93.47
2022-09-28T06:10:39.969Z,93.79
2022-09-28T06:13:07.663Z,94.58
2022-09-28T06:15:36.490Z,96.46
2022-09-28T06:18:06.984Z,98.79
2022-09-28T06:20:41.230Z,97.84
2022-09-28T06:23:16.321Z,97.75
2022-09-28T06:25:43.952Z,96.51
2022-09-28T06:28:13.920Z,96.83
2022-09-28T06:30:42.258Z,99.05
2022-09-28T06:33:14.559Z,100.00
2022-09-28T06:35:42.484Z,100.00
2022-09-28T06:38:10.791Z,100.00
2022-09-28T06:40:38.531Z,100.00
2022-09-28T06:43:17.461Z,100.00
2022-09-28T06:46:03.604Z,100.00
2022-09-28T06:48:33.569Z,100.00
2022-09-28T06:51:01.605Z,100.00
2022-09-28T06:53:49.024Z,100.00
2022-09-28T06:56:33.279Z,100.00
2022-09-28T06:59:00.793Z,100.00
2022-09-28T07:01:28.799Z,98.19
2022-09-28T07:04:06.910Z,98.07
2022-09-28T07:06:54.353Z,92.82
2022-09-28T07:09:51.239Z,93.59
2022-09-28T07:12:30.437Z,92.69
2022-09-28T07:15:02.696Z,91.83
2022-09-28T07:17:30.127Z,89.85
2022-09-28T07:20:09.911Z,87.13
2022-09-28T07:22:43.902Z,87.77
2022-09-28T07:25:17.474Z,86.92
2022-09-28T07:28:00.324Z,83.95
2022-09-28T07:30:47.960Z,82.34
2022-09-28T07:33:32.711Z,84.68
2022-09-28T07:36:18.584Z,82.56
2022-09-28T07:38:45.781Z,82.13
2022-09-28T07:41:14.227Z,77.79
2022-09-28T07:43:48.692Z,77.61
2022-09-28T07:46:17.000Z,77.94
2022-09-28T07:49:01.108Z,78.72
2022-09-28T07:51:34.635Z,78.66
2022-09-28T07:54:20.689Z,79.63
2022-09-28T07:57:11.060Z,76.69
2022-09-28T07:59:53.697Z,80.58
2022-09-28T08:02:27.078Z,81.27
2022-09-28T08:04:54.236Z,82.25
2022-09-28T08:07:24.204Z,83.60
2022-09-28T08:09:59.311Z,84.00
2022-09-28T08:12:26.645Z,84.62
2022-09-28T08:15:23.420Z,84.14
2022-09-28T08:18:02.015Z,79.85
2022-09-28T08:20:51.575Z,78.62
2022-09-28T08:23:20.489Z,77.15
2022-09-28T08:25:52.620Z,79.90
2022-09-28T08:28:20.773Z,81.02
2022-09-28T08:30:49.518Z,79.75
2022-09-28T08:33:39.629Z,80.57
2022-09-28T08:36:44.905Z,80.40
2022-09-28T08:39:30.907Z,80.48
2022-09-28T08:42:35.828Z,79.93
2022-09-28T08:45:25.105Z,77.61
2022-09-28T08:48:33.023Z,79.30
2022-09-28T08:51:20.507Z,76.21
2022-09-28T08:54:24.809Z,79.91
2022-09-28T08:57:12.712Z,79.77
2022-09-28T08:59:46.214Z,80.41
2022-09-28T09:02:33.784Z,79.52
2022-09-28T09:06:04.118Z,77.92
2022-09-28T09:09:12.355Z,80.58
2022-09-28T09:12:00.831Z,79.47
2022-09-28T09:14:46.393Z,81.28
2022-09-28T09:18:07.289Z,82.65
2022-09-28T09:20:56.961Z,82.59
2022-09-28T09:23:54.322Z,84.16
2022-09-28T09:26:39.636Z,80.96
2022-09-28T09:29:40.723Z,81.77
2022-09-28T09:32:35.872Z,83.95
2022-09-28T09:35:09.291Z,82.31
2022-09-28T09:38:22.141Z,82.00
2022-09-28T09:41:28.201Z,80.88
2022-09-28T09:44:46.005Z,81.03
2022-09-28T09:48:29.455Z,83.49
2022-09-28T09:51:20.080Z,84.70
2022-09-28T09:53:55.676Z,85.02
2022-09-28T09:56:27.384Z,86.85
2022-09-28T09:59:24.194Z,86.77
2022-09-28T10:02:23.718Z,83.02
2022-09-28T10:05:06.114Z,85.08
2022-09-28T10:08:14.595Z,79.77
2022-09-28T10:11:22.296Z,80.37
2022-09-28T10:13:55.372Z,79.30
2022-09-28T10:16:53.919Z,79.05
2022-09-28T10:19:43.767Z,78.67
2022-09-28T10:22:41.052Z,78.82
2022-09-28T10:25:13.465Z,73.56
2022-09-28T10:27:47.585Z,71.73
2022-09-28T10:30:19.163Z,70.12
2022-09-28T10:32:49.614Z,69.97
2022-09-28T10:35:24.206Z,67.53
2022-09-28T10:38:00.691Z,66.91
2022-09-28T10:40:51.621Z,67.02
2022-09-28T10:43:34.920Z,68.90
2022-09-28T10:46:15.268Z,66.91
2022-09-28T10:49:18.754Z,65.18
2022-09-28T10:51:56.289Z,67.24
2022-09-28T10:54:38.901Z,66.95
2022-09-28T10:57:27.845Z,68.68
2022-09-28T10:59:59.332Z,67.95
2022-09-28T11:02:36.600Z,67.15
2022-09-28T11:05:30.209Z,68.86
2022-09-28T11:08:02.843Z,69.36
2022-09-28T11:10:38.143Z,68.12
2022-09-28T11:13:12.775Z,68.25
2022-09-28T11:15:44.471Z,67.09
2022-09-28T11:18:32.575Z,67.25
2022-09-28T11:21:12.550Z,68.84
2022-09-28T11:24:01.533Z,68.60
2022-09-28T11:26:41.063Z,68.66
2022-09-28T11:29:44.351Z,68.96
2022-09-28T11:32:44.683Z,70.63
2022-09-28T11:35:22.423Z,71.11
2022-09-28T11:37:57.369Z,71.39
2022-09-28T11:40:43.305Z,70.02
2022-09-28T11:43:36.920Z,70.58
2022-09-28T11:46:15.106Z,71.12
2022-09-28T11:48:49.476Z,70.74
2022-09-28T11:51:22.140Z,71.41
2022-09-28T11:53:54.344Z,69.85
2022-09-28T11:56:42.180Z,69.59
2022-09-28T11:59:25.285Z,69.97
2022-09-28T12:01:57.788Z,71.77
2022-09-28T12:05:21.348Z,70.14
2022-09-28T12:08:04.684Z,71.32
2022-09-28T12:11:24.212Z,71.70
2022-09-28T12:14:28.693Z,71.81
2022-09-28T12:17:08.273Z,71.07
2022-09-28T12:19:55.609Z,71.00
2022-09-28T12:22:33.872Z,72.40
2022-09-28T12:25:04.149Z,71.19
2022-09-28T12:27:46.744Z,67.33
2022-09-28T12:30:20.106Z,68.95
2022-09-28T12:32:50.452Z,68.00
2022-09-28T12:35:40.514Z,68.32
2022-09-28T12:38:22.673Z,66.70
2022-09-28T12:41:08.979Z,67.84
2022-09-28T12:43:41.000Z,66.24
2022-09-28T12:46:12.086Z,66.03
2022-09-28T12:49:03.035Z,64.77
2022-09-28T12:51:43.990Z,63.91
2022-09-28T12:54:19.427Z,64.81
2022-09-28T12:57:04.956Z,65.41
2022-09-28T12:59:34.966Z,66.34
2022-09-28T13:02:30.156Z,66.72
2022-09-28T13:05:12.458Z,64.55
2022-09-28T13:07:58.263Z,65.10
2022-09-28T13:10:34.234Z,65.46
2022-09-28T13:13:31.753Z,66.27
2022-09-28T13:16:28.360Z,64.87
2022-09-28T13:19:17.299Z,64.49
2022-09-28T13:22:13.108Z,65.40
2022-09-28T13:24:44.756Z,66.67
2022-09-28T13:27:21.278Z,66.76
2022-09-28T13:29:50.463Z,66.06
2022-09-28T13:32:19.430Z,65.94
2022-09-28T13:34:50.553Z,63.62
2022-09-28T13:37:25.338Z,62.93
2022-09-28T13:39:57.047Z,64.55
2022-09-28T13:42:26.996Z,63.71
2022-09-28T13:45:22.302Z,64.94
2022-09-28T13:47:52.498Z,64.25
2022-09-28T13:50:47.593Z,64.50
2022-09-28T13:53:45.772Z,62.99
2022-09-28T13:56:37.471Z,63.73
2022-09-28T13:59:11.229Z,64.03
2022-09-28T14:02:06.822Z,64.67
2022-09-28T14:04:56.222Z,64.12
2022-09-28T14:07:35.477Z,64.80
2022-09-28T14:10:24.748Z,65.10
2022-09-28T14:12:53.606Z,65.12
2022-09-28T14:15:30.010Z,65.19
2022-09-28T14:18:20.924Z,64.53
2022-09-28T14:21:07.192Z,65.28
2022-09-28T14:23:50.802Z,66.00
2022-09-28T14:26:41.901Z,66.56
2022-09-28T14:29:36.456Z,66.34
2022-09-28T14:32:09.541Z,66.70
2022-09-28T14:34:41.490Z,66.63
2022-09-28T14:37:46.033Z,67.77
2022-09-28T14:41:11.361Z,70.34
2022-09-28T14:43:44.676Z,74.51
2022-09-28T14:46:11.985Z,72.97
2022-09-28T14:48:55.474Z,72.04
2022-09-28T14:51:33.105Z,71.47
2022-09-28T14:54:03.356Z,71.28
2022-09-28T14:56:40.442Z,75.54
2022-09-28T14:59:17.880Z,78.61
2022-09-28T15:01:57.852Z,77.32
2022-09-28T15:04:28.848Z,75.99
2022-09-28T15:06:58.344Z,75.25
2022-09-28T15:09:32.222Z,74.98
2022-09-28T15:12:03.546Z,74.83
2022-09-28T15:14:33.524Z,74.57
2022-09-28T15:17:08.712Z,74.19
2022-09-28T15:20:03.868Z,73.50
2022-09-28T15:22:31.261Z,74.73
2022-09-28T15:25:02.416Z,74.92
2022-09-28T15:27:38.176Z,74.96
2022-09-28T15:30:22.523Z,75.16
2022-09-28T15:32:50.057Z,75.38
2022-09-28T15:35:23.713Z,75.61
2022-09-28T15:37:56.566Z,76.18
2022-09-28T15:40:33.848Z,76.52
2022-09-28T15:43:02.647Z,77.54
2022-09-28T15:45:40.764Z,79.88
2022-09-28T15:48:37.509Z,80.28
2022-09-28T15:51:11.114Z,79.58
2022-09-28T15:53:44.127Z,79.87
2022-09-28T15:56:11.932Z,80.22
2022-09-28T15:58:39.776Z,80.79
2022-09-28T16:01:26.084Z,82.01
2022-09-28T16:03:53.984Z,82.76
2022-09-28T16:06:22.036Z,83.40
2022-09-28T16:12:21.856Z,85.60
2022-09-28T16:14:51.976Z,86.36
2022-09-28T16:17:33.836Z,86.74
2022-09-28T16:20:29.255Z,87.36
2022-09-28T16:23:03.608Z,87.66
2022-09-28T16:25:30.728Z,88.05
2022-09-28T16:27:58.073Z,88.58
2022-09-28T16:30:32.518Z,89.54
2022-09-28T16:33:05.778Z,89.77
2022-09-28T16:35:35.954Z,90.44
2022-09-28T16:38:14.646Z,91.00
2022-09-28T16:41:04.175Z,90.82
2022-09-28T16:43:36.311Z,91.49
2022-09-28T16:46:16.022Z,91.70
2022-09-28T16:48:51.576Z,91.87
2022-09-28T16:51:20.482Z,92.80
2022-09-28T16:54:06.539Z,93.72
2022-09-28T16:56:35.813Z,94.48
2022-09-28T16:59:03.151Z,94.69
2022-09-28T17:01:31.556Z,94.95
2022-09-28T17:03:58.909Z,95.56
2022-09-28T17:06:27.162Z,96.45
2022-09-28T17:08:59.256Z,96.44
2022-09-28T17:11:26.332Z,96.47
2022-09-28T17:13:59.153Z,96.91
2022-09-28T17:19:24.570Z,95.28
2022-09-28T17:21:53.214Z,96.29
2022-09-28T17:24:20.864Z,97.57
2022-09-28T17:26:51.008Z,97.97
2022-09-28T17:29:18.901Z,98.35
2022-09-28T17:31:47.092Z,98.39
2022-09-28T17:34:19.578Z,98.51
2022-09-28T17:36:47.537Z,98.75
2022-09-28T17:39:18.565Z,99.06
2022-09-28T17:41:47.437Z,99.24
2022-09-28T17:44:16.420Z,99.44
2022-09-28T17:46:47.608Z,100.00
2022-09-28T17:49:15.473Z,100.00
2022-09-28T17:51:42.728Z,100.00
2022-09-28T17:54:10.406Z,100.00
2022-09-28T17:56:37.739Z,100.00
2022-09-28T17:59:07.525Z,100.00
2022-09-28T18:01:38.125Z,100.00
2022-09-28T18:04:08.221Z,100.00
2022-09-28T18:06:37.304Z,100.00
2022-09-28T18:09:05.411Z,100.00
2022-09-28T18:11:33.803Z,100.00
2022-09-28T18:14:01.327Z,100.00
2022-09-28T18:16:29.222Z,100.00
2022-09-28T18:18:56.660Z,100.00
2022-09-28T18:21:23.816Z,100.00
2022-09-28T18:23:51.015Z,100.00
2022-09-28T18:26:21.409Z,100.00
2022-09-28T18:28:48.614Z,100.00
2022-09-28T18:31:19.145Z,100.00
2022-09-28T18:33:51.303Z,100.00
2022-09-28T18:36:18.636Z,100.00
2022-09-28T18:38:45.706Z,100.00
2022-09-28T18:41:15.806Z,100.00
2022-09-28T18:43:49.027Z,100.00
2022-09-28T18:46:18.442Z,100.00
2022-09-28T18:48:47.931Z,100.00
2022-09-28T18:51:15.438Z,100.00
2022-09-28T18:53:42.654Z,100.00
2022-09-28T18:56:12.512Z,100.00
2022-09-28T18:58:41.389Z,100.00
2022-09-28T19:01:33.390Z,100.00
2022-09-28T19:04:06.572Z,100.00
2022-09-28T19:06:34.473Z,100.00
2022-09-28T19:09:01.853Z,100.00
2022-09-28T19:11:29.116Z,100.00
2022-09-28T19:13:56.717Z,100.00
2022-09-28T19:16:28.746Z,100.00
2022-09-28T19:18:58.291Z,100.00
2022-09-28T19:21:26.827Z,100.00
2022-09-28T19:23:55.682Z,100.00
2022-09-28T19:26:25.652Z,100.00
2022-09-28T19:28:53.824Z,100.00
2022-09-28T19:31:21.958Z,100.00
2022-09-28T19:33:49.924Z,100.00
2022-09-28T19:36:19.667Z,100.00
2022-09-28T19:38:47.576Z,100.00
2022-09-28T19:41:39.372Z,100.00
2022-09-28T19:44:25.214Z,100.00
2022-09-28T19:46:55.381Z,100.00
2022-09-28T19:49:24.976Z,100.00
2022-09-28T19:52:11.968Z,100.00
2022-09-28T19:54:39.832Z,100.00
2022-09-28T19:57:08.753Z,100.00
2022-09-28T19:59:37.515Z,100.00
2022-09-28T20:02:07.097Z,100.00
2022-09-28T20:04:34.907Z,100.00
2022-09-28T20:07:02.612Z,100.00
2022-09-28T20:09:29.930Z,100.00
2022-09-28T20:11:57.488Z,100.00
2022-09-28T20:14:26.270Z,100.00
2022-09-28T20:16:55.449Z,100.00
2022-09-28T20:19:23.358Z,100.00
2022-09-28T20:21:50.946Z,100.00
2022-09-28T20:24:18.632Z,100.00
2022-09-28T20:26:46.029Z,100.00
2022-09-28T20:29:13.370Z,100.00
2022-09-28T20:31:40.778Z,100.00
2022-09-28T20:34:08.210Z,100.00
2022-09-28T20:36:35.415Z,100.00
2022-09-28T20:39:02.973Z,100.00
2022-09-28T20:41:35.714Z,100.00
2022-09-28T20:44:05.918Z,100.00
2022-09-28T20:46:37.291Z,100.00
2022-09-28T20:49:05.417Z,100.00
2022-09-28T20:51:32.833Z,100.00
2022-09-28T20:54:00.111Z,100.00
2022-09-28T20:56:37.792Z,100.00
2022-09-28T20:59:08.075Z,100.00
2022-09-28T21:01:35.536Z,100.00
2022-09-28T21:04:04.754Z,100.00
2022-09-28T21:06:35.154Z,100.00
2022-09-28T21:09:03.312Z,100.00
2022-09-28T21:11:30.946Z,100.00
2022-09-28T21:13:59.896Z,100.00
2022-09-28T21:16:28.895Z,100.00
2022-09-28T21:18:56.400Z,100.00
2022-09-28T21:21:24.864Z,100.00
2022-09-28T21:23:53.410Z,100.00
2022-09-28T21:26:25.923Z,100.00
2022-09-28T21:28:54.142Z,100.00
2022-09-28T21:31:27.540Z,100.00
2022-09-28T21:33:56.372Z,100.00
2022-09-28T21:36:24.598Z,100.00
2022-09-28T21:38:51.832Z,100.00
2022-09-28T21:41:18.921Z,100.00
2022-09-28T21:43:46.081Z,100.00
2022-09-28T21:46:13.681Z,100.00
2022-09-28T21:48:41.460Z,100.00
2022-09-28T21:51:13.050Z,100.00
2022-09-28T21:53:40.295Z,100.00
2022-09-28T21:56:10.619Z,100.00
2022-09-28T21:58:38.044Z,100.00
2022-09-28T22:01:18.050Z,100.00
2022-09-28T22:03:48.164Z,100.00
2022-09-28T22:06:17.274Z,100.00
2022-09-28T22:08:46.100Z,100.00
2022-09-28T22:11:16.406Z,100.00
2022-09-28T22:13:49.434Z,100.00
2022-09-28T22:16:18.659Z,100.00
2022-09-28T22:18:46.434Z,100.00
2022-09-28T22:21:14.962Z,100.00
2022-09-28T22:23:42.743Z,100.00
2022-09-28T22:26:18.071Z,100.00
2022-09-28T22:28:57.516Z,100.00
2022-09-28T22:31:28.940Z,100.00
2022-09-28T22:33:56.829Z,100.00
2022-09-28T22:36:24.428Z,100.00
2022-09-28T22:38:52.288Z,100.00
2022-09-28T22:41:22.928Z,100.00
2022-09-28T22:43:52.603Z,100.00
2022-09-28T22:46:25.670Z,100.00
2022-09-28T22:48:55.323Z,100.00
2022-09-28T22:51:24.670Z,100.00
2022-09-28T22:53:52.121Z,100.00
2022-09-28T22:56:19.505Z,100.00
2022-09-28T22:58:47.306Z,100.00
2022-09-28T23:01:21.334Z,100.00
2022-09-28T23:03:50.011Z,100.00
2022-09-28T23:06:19.141Z,100.00
2022-09-28T23:08:47.582Z,100.00
2022-09-28T23:11:15.742Z,100.00
2022-09-28T23:13:43.889Z,100.00
2022-09-28T23:16:12.738Z,100.00
2022-09-28T23:18:43.735Z,100.00
2022-09-28T23:21:13.533Z,100.00
2022-09-28T23:23:41.162Z,100.00
2022-09-28T23:26:20.479Z,100.00
2022-09-28T23:28:47.593Z,100.00
2022-09-28T23:31:18.080Z,100.00
2022-09-28T23:33:45.377Z,100.00
2022-09-28T23:36:12.708Z,100.00
2022-09-28T23:38:40.181Z,100.00
2022-09-28T23:41:07.971Z,100.00
2022-09-28T23:43:36.416Z,100.00
2022-09-28T23:46:05.223Z,100.00
2022-09-28T23:48:33.265Z,100.00
2022-09-28T23:51:00.767Z,100.00
2022-09-28T23:53:28.619Z,100.00
2022-09-28T23:55:56.071Z,100.00
2022-09-28T23:58:23.252Z,100.00
